• Join FlightAware (Why Join?)
  • Login
  • US Flag 
09:33PM EDT


 

Airport Tracker/Info


-or-


 

Live Flight TrackerFlight Track Log ✈ N319EE ✈ 08-Oct-2013 ✈ KPWM - KROC

Flight Track Log - Related Links

Times and Time Zones

All times are in EDT time to prevent confusion due to time zone crossing. See the N319EE flight status page for this flight to view local times or setup timezone preferences in your user account.

Time Position Orientation Groundspeed Altitude Reporting Facility
EDT Latitude Longitude Course Direction KTS MPH feet Rate Location/Type
07:11AM 43.6631 -70.4683 255° West 165 190 5,600  Level Boston Center
07:12AM 43.6722 -70.5169 285° West 159 183 7,100 1,560 Climbing Boston Center
07:13AM 43.6858 -70.5853 285° West 159 183 8,800 1,800 Climbing Boston Center
07:14AM 43.6825 -70.6428 265° West 159 183 10,800 2,100 Climbing Boston Center
07:15AM 43.6287 -70.7253 257° West  Level Estimated
07:15AM 43.6794 -70.7089 266° West 159 183 13,100  Level Boston Center
07:16AM 43.6251 -70.8085 255° West  Level Estimated
07:16AM 43.6781 -70.7636 268° West 159 183 15,000  Level Boston Center
07:17AM 43.6728 -70.8297 264° West 159 183 16,100 540 Climbing Boston Center
07:18AM 43.6697 -70.8986 267° West 184 212 16,100  Level Boston Center
07:19AM 43.6644 -70.9878 265° West 214 246 16,100 -60 Level Boston Center
07:20AM 43.6614 -71.0625 267° West 219 252 16,000 -60 Descending Boston Center
07:21AM 43.6561 -71.1489 265° West 219 252 16,000  Level Boston Center
07:22AM 43.6528 -71.2233 266° West 219 252 16,100  Climbing Boston Center
07:23AM 43.6472 -71.3039 265° West 219 252 16,100  Level Boston Center
07:24AM 43.6419 -71.3928 265° West 219 252 16,100  Level Boston Center
07:25AM 43.6403 -71.4647 268° West 219 252 16,100  Level Boston Center
07:26AM 43.6350 -71.5536 265° West 219 252 16,100  Level Boston Center
07:27AM 43.6311 -71.6225 266° West 219 252 16,100  Level Boston Center
07:28AM 43.6256 -71.7117 265° West 219 252 16,100  Level Boston Center
07:29AM 43.6219 -71.7833 266° West 219 252 16,100  Level Boston Center
07:30AM 43.6139 -71.8667 262° West 213 245 16,100  Level Boston Center
07:31AM 43.6122 -71.9469 268° West 213 245 16,100  Level Boston Center
07:32AM 43.6083 -72.0214 266° West 218 251 16,100  Level Boston Center
07:33AM 43.6025 -72.0989 264° West 218 251 16,100  Level Boston Center
07:34AM 43.5964 -72.1822 264° West 213 245 16,100  Level Boston Center
07:35AM 43.5922 -72.2594 266° West 218 251 16,100  Level Boston Center
07:36AM 43.5883 -72.3369 266° West 218 251 16,100  Level Boston Center
07:37AM 43.5819 -72.4172 264° West 218 251 16,100  Level Boston Center
07:38AM 43.5778 -72.4975 266° West 218 251 16,100  Level Boston Center
07:39AM 43.5717 -72.5778 264° West 218 251 16,100  Level Boston Center
07:40AM 43.5672 -72.6578 266° West 218 251 16,100  Level Boston Center
07:41AM 43.5628 -72.7381 266° West 218 251 16,100  Level Boston Center
07:42AM 43.5564 -72.8183 264° West 218 251 16,100  Level Boston Center
07:43AM 43.5500 -72.9014 264° West 218 251 16,100  Level Boston Center
07:44AM 43.5453 -72.9842 266° West 218 251 16,100  Level Boston Center
07:45AM 43.5386 -73.0531 262° West 218 251 16,100  Level Boston Center
07:46AM 43.5319 -73.1331 263° West 218 251 16,100  Level Boston Center
07:47AM 43.5272 -73.2133 265° West 218 251 16,100  Level Boston Center
07:48AM 43.5225 -73.2992 266° West 218 251 16,100  Level Boston Center
07:49AM 43.5136 -73.3819 262° West 218 251 16,100  Level Boston Center
07:50AM 43.5086 -73.4619 265° West 218 251 16,100  Level Boston Center
07:51AM 43.5017 -73.5419 263° West 218 251 16,100  Level Boston Center
07:52AM 43.4967 -73.6278 265° West 218 251 16,100  Level Boston Center
07:53AM 43.4894 -73.7106 263° West 218 251 16,100  Level Boston Center
07:54AM 43.4822 -73.7936 263° West 218 251 16,100  Level Boston Center
07:55AM 43.4772 -73.8792 265° West 218 251 16,100  Level Boston Center
07:56AM 43.4719 -73.9622 265° West 218 251 16,100  Level Boston Center
07:57AM 43.4625 -74.0478 261° West 218 251 16,100  Level Boston Center
07:58AM 43.4547 -74.1447 264° West 228 262 16,100  Level Boston Center
07:59AM 43.4492 -74.2333 265° West 233 268 16,100  Level Boston Center
08:00AM 43.4417 -74.3189 263° West 233 268 16,100  Level Boston Center
08:01AM 43.4339 -74.4044 263° West 233 268 16,100  Level Boston Center
08:02AM 43.4283 -74.4900 265° West 233 268 16,100  Level Boston Center
08:03AM 43.4203 -74.5783 263° West 238 274 16,100 -60 Level Boston Center
08:04AM 43.4144 -74.6639 265° West 238 274 16,000 -60 Descending Boston Center
08:05AM 43.4067 -74.7522 263° West 238 274 16,000  Level Boston Center
08:06AM 43.3986 -74.8375 263° West 238 274 16,000  Level Boston Center
08:07AM 43.3925 -74.9231 264° West 238 274 16,000  Level Boston Center
08:08AM 43.3844 -75.0114 263° West 238 274 16,000  Level Boston Center
08:09AM 43.3783 -75.0967 264° West 233 268 16,000  Level Boston Center
08:10AM 43.3722 -75.1794 264° West 233 268 16,000  Level Boston Center
08:11AM 43.3636 -75.2703 263° West 238 274 16,000  Level Boston Center
08:12AM 43.3575 -75.3472 264° West 238 274 16,000  Level Boston Center
08:13AM 43.3511 -75.4356 264° West 238 274 16,000  Level Boston Center
08:14AM 43.3425 -75.5206 262° West 233 268 16,000  Level Boston Center
08:15AM 43.3358 -75.6089 264° West 233 268 16,000  Level Boston Center
08:16AM 43.3272 -75.6942 262° West 233 268 16,000  Level Boston Center
08:17AM 43.3206 -75.7822 264° West 238 274 16,000  Level Boston Center
08:18AM 43.3117 -75.8703 262° West 238 274 16,000  Level Boston Center
08:19AM 43.3050 -75.9583 264° West 238 274 16,000  Level Boston Center
08:21AM 43.2853 -76.1461 262° West 233 268 16,000  Level Cleveland Center
08:22AM 43.2767 -76.2339 262° West 233 268 16,000  Level Cleveland Center
08:24AM 43.2689 -76.3231 263° West 233 268 16,000  Level Cleveland Center
08:25AM 43.2606 -76.4122 263° West 236 272 16,000  Level Cleveland Center
08:26AM 43.2522 -76.5017 263° West 237 273 16,000  Level Cleveland Center
08:27AM 43.2419 -76.6092 263° West 236 272 16,000 -300 Level Cleveland Center
08:28AM 43.2328 -76.6997 262° West 239 275 15,500 -540 Descending Cleveland Center
08:28AM 43.2325 -76.7144 269° West 242 278 15,400 -1,740 Descending Cleveland Center
08:28AM 43.2297 -76.7369 260° West 247 284 14,900 -2,040 Descending Cleveland Center
08:29AM 43.2225 -76.7989 261° West 260 299 13,600 -1,920 Descending Cleveland Center
08:29AM 43.2203 -76.8389 266° West 272 313 13,000 -1,560 Descending Cleveland Center
08:30AM 43.2136 -76.9014 262° West 270 311 12,000 -1,500 Descending Cleveland Center
08:30AM 43.2106 -76.9408 264° West 269 310 11,500 -1,380 Descending Cleveland Center
08:31AM 43.2025 -77.0078 261° West 265 305 10,600 -1,200 Descending Cleveland Center
08:31AM 43.1994 -77.0394 262° West 264 304 10,300 -1,560 Descending Cleveland Center
08:32AM 43.1931 -77.1061 263° West 261 300 9,000 -1,800 Descending Cleveland Center
08:32AM 43.1900 -77.1383 263° West 258 297 8,500 -1,560 Descending Cleveland Center
08:33AM 43.1833 -77.2036 262° West 259 298 7,400 -2,220 Descending Cleveland Center
08:33AM 43.1797 -77.2431 263° West 259 298 6,300 -2,460 Descending Cleveland Center
08:34AM 43.1742 -77.2978 262° West 253 291 4,900 -2,460 Descending Cleveland Center
08:34AM 43.1692 -77.3358 260° West 246 283 3,800 -1,860 Descending Cleveland Center
08:35AM 43.1597 -77.4086 260° West 249 287 3,000 -840 Descending Cleveland Center
08:35AM 43.1583 -77.4286 265° West 243 280 3,000 -420 Level Cleveland Center
08:36AM 43.1517 -77.4942 262° West 236 272 2,600 -600 Descending Cleveland Center
08:36AM 43.1508 -77.5108 266° West 217 250 2,400 -600 Descending Cleveland Center
08:37AM 43.1453 -77.5731 263° West 217 250 2,000 -540 Descending Cleveland Center
08:37AM 43.1422 -77.5867 253° West 186 214 1,900 -900 Descending Cleveland Center
08:38AM 43.1314 -77.6278 250° West 169 194 1,100 -900 Descending Cleveland Center
08:38AM 43.1286 -77.6381 250° West 125 144 1,000 -420 Descending Cleveland Center
08:39AM 43.1139 -77.6792 244° Southwest 154 177 700 -360 Descending Cleveland Center
08:41AM 43.1167 -77.6667 North  Level FlightAware Approximate